Time;durP1;ratioP1;P1;durP2;ratioP2;P2;SDS_P1;SDS_P2;PMS_P1;PMS_P2;Temp;Humidity;BMP_temperature;BMP_pressure;BME280_temperature;BME280_humidity;BME280_pressure;Samples;Min_cycle;Max_cycle;Signal;HPM_P1;HPM_P2
2022/05/26 00:00:56;;;;;;;27.98;8.32;;;;;;;;;;4954597;28;20150;-80
2022/05/26 00:03:22;;;;;;;27.95;7.95;;;;;;;;;;4970644;28;20053;-81
2022/05/26 00:05:48;;;;;;;31.92;8.95;;;;;;;;;;4971127;28;20050;-80
2022/05/26 00:08:15;;;;;;;29.92;8.77;;;;;;;;;;4987880;28;20491;-80
2022/05/26 00:10:41;;;;;;;33.42;8.90;;;;;;;;;;4969757;28;20085;-79
2022/05/26 00:13:07;;;;;;;34.85;9.30;;;;;;;;;;4953816;28;20054;-79
2022/05/26 00:15:33;;;;;;;32.65;9.38;;;;;;;;;;4979390;28;20050;-80
2022/05/26 00:17:59;;;;;;;34.55;9.45;;;;;;;;;;4982722;28;20035;-79
2022/05/26 00:20:25;;;;;;;38.15;10.05;;;;;;;;;;4970562;28;20043;-79
2022/05/26 00:22:51;;;;;;;34.25;9.27;;;;;;;;;;4954061;28;20050;-80
2022/05/26 00:25:17;;;;;;;36.30;9.90;;;;;;;;;;4973528;28;20065;-80
2022/05/26 00:27:43;;;;;;;39.35;9.48;;;;;;;;;;4987982;28;20058;-86
2022/05/26 00:30:10;;;;;;;40.38;10.20;;;;;;;;;;4985772;28;20050;-89
2022/05/26 00:32:36;;;;;;;41.55;10.48;;;;;;;;;;4989674;28;20054;-88
2022/05/26 00:35:02;;;;;;;38.55;10.05;;;;;;;;;;4990925;28;20102;-88
2022/05/26 00:37:29;;;;;;;39.00;10.10;;;;;;;;;;4988247;28;20034;-87
2022/05/26 00:39:55;;;;;;;38.55;9.63;;;;;;;;;;4960023;28;20051;-86
2022/05/26 00:42:21;;;;;;;33.78;9.77;;;;;;;;;;4969841;28;20039;-80
2022/05/26 00:44:47;;;;;;;31.17;8.75;;;;;;;;;;4969656;28;20058;-87
2022/05/26 00:47:18;;;;;;;34.90;9.43;;;;;;;;;;4954908;28;20049;-86
2022/05/26 00:49:47;;;;;;;37.92;8.95;;;;;;;;;;4992784;28;20125;-89
2022/05/26 00:52:22;;;;;;;39.15;10.20;;;;;;;;;;4989569;28;20441;-80
2022/05/26 00:54:49;;;;;;;36.35;8.55;;;;;;;;;;4988693;28;20080;-79
2022/05/26 00:57:18;;;;;;;35.88;8.30;;;;;;;;;;4982029;28;20554;-87
2022/05/26 01:00:04;;;;;;;34.90;8.90;;;;;;;;;;4986858;28;20081;-86
2022/05/26 01:02:34;;;;;;;34.78;8.27;;;;;;;;;;4971205;28;20051;-88
2022/05/26 01:05:02;;;;;;;38.90;8.65;;;;;;;;;;4970151;28;20109;-88
2022/05/26 01:07:30;;;;;;;32.78;8.43;;;;;;;;;;4990468;28;20042;-88
2022/05/26 01:09:56;;;;;;;36.22;8.90;;;;;;;;;;4970820;28;20049;-89
2022/05/26 01:12:23;;;;;;;31.77;8.50;;;;;;;;;;4969941;28;20500;-88
2022/05/26 01:14:57;;;;;;;30.00;7.95;;;;;;;;;;4969435;28;20051;-87
2022/05/26 01:17:42;;;;;;;38.00;8.98;;;;;;;;;;4969720;28;20127;-88
2022/05/26 01:20:14;;;;;;;31.77;7.55;;;;;;;;;;4968941;28;20086;-87
2022/05/26 01:23:02;;;;;;;32.35;8.05;;;;;;;;;;5007227;28;20047;-87
2022/05/26 01:25:34;;;;;;;29.65;6.80;;;;;;;;;;4993101;28;20125;-80
2022/05/26 01:28:16;;;;;;;28.60;7.30;;;;;;;;;;4992126;28;20050;-87
2022/05/26 01:30:56;;;;;;;37.20;8.18;;;;;;;;;;4969778;28;20507;-86
2022/05/26 01:33:27;;;;;;;38.90;8.57;;;;;;;;;;4970261;28;20046;-85
2022/05/26 01:36:00;;;;;;;30.15;7.72;;;;;;;;;;4969921;28;20070;-87
2022/05/26 01:38:29;;;;;;;38.78;8.63;;;;;;;;;;4971035;28;20047;-87
2022/05/26 01:41:04;;;;;;;38.72;7.57;;;;;;;;;;5007553;28;20517;-87
2022/05/26 01:43:48;;;;;;;37.97;8.48;;;;;;;;;;4992076;28;20045;-86
2022/05/26 01:46:17;;;;;;;33.05;8.07;;;;;;;;;;4992497;28;20081;-87
2022/05/26 01:48:49;;;;;;;39.67;7.60;;;;;;;;;;4977108;28;20198;-86
2022/05/26 01:51:23;;;;;;;38.90;8.40;;;;;;;;;;4993881;28;20089;-86
2022/05/26 01:54:12;;;;;;;29.20;7.72;;;;;;;;;;4973264;28;20058;-88
2022/05/26 01:56:38;;;;;;;;;;;;;;;;;;4973101;28;20035;-88
2022/05/26 01:59:07;;;;;;;39.42;8.15;;;;;;;;;;4989381;28;19965;-88
2022/05/26 02:01:36;;;;;;;42.08;8.18;;;;;;;;;;4972639;28;21344;-87
2022/05/26 02:04:03;;;;;;;35.35;7.75;;;;;;;;;;4975182;28;20428;-87
2022/05/26 02:06:32;;;;;;;37.05;7.43;;;;;;;;;;4985111;28;20051;-81
2022/05/26 02:09:09;;;;;;;37.63;8.15;;;;;;;;;;4985325;28;20479;-79
2022/05/26 02:11:41;;;;;;;33.58;7.13;;;;;;;;;;4986134;28;20047;-79
2022/05/26 02:14:07;;;;;;;29.80;7.45;;;;;;;;;;4989498;28;20114;-80
2022/05/26 02:16:34;;;;;;;31.70;7.20;;;;;;;;;;4972172;28;20046;-88
2022/05/26 02:19:03;;;;;;;30.02;7.63;;;;;;;;;;4972692;28;20046;-87
2022/05/26 02:21:35;;;;;;;29.10;7.35;;;;;;;;;;4977845;28;20034;-86
2022/05/26 02:24:05;;;;;;;37.13;8.00;;;;;;;;;;4988750;28;20082;-87
2022/05/26 02:26:32;;;;;;;36.03;6.78;;;;;;;;;;4988920;28;20499;-87
2022/05/26 02:31:43;;;;;;;30.33;6.35;;;;;;;;;;4990694;28;20038;-87
2022/05/26 02:34:11;;;;;;;33.75;7.05;;;;;;;;;;4991934;28;20121;-87
2022/05/26 02:36:38;;;;;;;33.72;6.68;;;;;;;;;;4977648;28;20477;-87
2022/05/26 02:39:04;;;;;;;33.63;6.80;;;;;;;;;;4972338;28;20050;-86
2022/05/26 02:41:31;;;;;;;34.05;6.22;;;;;;;;;;4972891;28;20055;-88
2022/05/26 02:43:58;;;;;;;31.95;6.72;;;;;;;;;;4973684;28;20483;-87
2022/05/26 02:46:47;;;;;;;31.10;5.75;;;;;;;;;;4973196;28;20450;-87
2022/05/26 02:49:13;;;;;;;24.80;5.45;;;;;;;;;;4973177;28;20439;-86
2022/05/26 02:51:57;;;;;;;27.58;5.97;;;;;;;;;;4972614;28;20402;-86
2022/05/26 02:54:26;;;;;;;26.08;5.70;;;;;;;;;;4958373;28;20386;-87
2022/05/26 02:57:15;;;;;;;32.50;5.22;;;;;;;;;;4972043;28;20394;-85
2022/05/26 02:59:47;;;;;;;23.85;5.43;;;;;;;;;;4971623;28;20050;-88
2022/05/26 03:02:20;;;;;;;24.10;4.68;;;;;;;;;;4955819;28;20057;-87
2022/05/26 03:05:01;;;;;;;26.08;4.72;;;;;;;;;;4984605;28;20054;-81
2022/05/26 03:07:29;;;;;;;21.77;4.57;;;;;;;;;;4972144;28;20134;-80
2022/05/26 03:09:55;;;;;;;22.17;4.80;;;;;;;;;;4971392;28;20414;-86
2022/05/26 03:12:23;;;;;;;20.40;4.75;;;;;;;;;;4973103;28;20387;-79
2022/05/26 03:14:49;;;;;;;20.77;4.68;;;;;;;;;;4983933;28;20060;-80
2022/05/26 03:17:16;;;;;;;24.50;4.72;;;;;;;;;;4974823;28;20056;-78
2022/05/26 03:19:42;;;;;;;19.73;4.05;;;;;;;;;;4973607;28;20086;-80
2022/05/26 03:22:08;;;;;;;17.33;3.65;;;;;;;;;;4957478;28;20502;-81
2022/05/26 03:24:34;;;;;;;20.10;3.95;;;;;;;;;;4977691;28;20073;-81
2022/05/26 03:27:00;;;;;;;15.98;3.75;;;;;;;;;;4981237;28;20046;-80
2022/05/26 03:29:26;;;;;;;16.92;3.65;;;;;;;;;;4976678;28;20078;-80
2022/05/26 03:31:52;;;;;;;11.68;2.88;;;;;;;;;;4992198;28;20103;-80
2022/05/26 03:42:33;;;;;;;11.90;2.65;;;;;;;;;;4991444;28;20052;-80
2022/05/26 03:44:59;;;;;;;9.77;2.50;;;;;;;;;;4991582;28;20038;-81
2022/05/26 03:47:25;;;;;;;11.57;2.50;;;;;;;;;;4974571;28;20074;-81
2022/05/26 03:49:51;;;;;;;10.07;2.00;;;;;;;;;;4972413;28;20113;-80
2022/05/26 03:52:18;;;;;;;15.35;2.20;;;;;;;;;;4973888;28;20050;-89
2022/05/26 03:54:44;;;;;;;11.77;1.90;;;;;;;;;;4974796;28;20039;-85
2022/05/26 03:57:10;;;;;;;10.40;1.80;;;;;;;;;;4990912;28;20045;-87
2022/05/26 03:59:40;;;;;;;8.05;2.13;;;;;;;;;;4980618;28;20047;-87
2022/05/26 04:02:06;;;;;;;11.10;1.80;;;;;;;;;;4973716;28;20246;-86
2022/05/26 04:04:32;;;;;;;7.80;1.50;;;;;;;;;;4987741;28;20436;-85
2022/05/26 04:06:58;;;;;;;9.20;2.03;;;;;;;;;;4973751;28;20053;-87
2022/05/26 04:09:24;;;;;;;6.97;1.65;;;;;;;;;;4986926;28;20053;-86
2022/05/26 04:11:51;;;;;;;6.10;1.48;;;;;;;;;;4991732;28;20093;-88
2022/05/26 04:14:17;;;;;;;5.85;1.40;;;;;;;;;;4992529;28;20501;-87
2022/05/26 04:16:43;;;;;;;9.00;1.40;;;;;;;;;;4990963;28;20034;-86
2022/05/26 04:19:10;;;;;;;6.70;1.40;;;;;;;;;;4981169;28;20460;-87
2022/05/26 04:22:14;;;;;;;5.47;1.35;;;;;;;;;;4992635;28;20058;-86
2022/05/26 04:24:22;;;;;;;6.57;1.50;;;;;;;;;;5009038;28;20054;-87
2022/05/26 04:26:48;;;;;;;7.90;2.00;;;;;;;;;;4991994;28;20053;-90
2022/05/26 04:29:14;;;;;;;9.13;1.98;;;;;;;;;;4986859;28;20468;-87
2022/05/26 04:31:41;;;;;;;7.60;1.33;;;;;;;;;;4972363;28;20031;-87
2022/05/26 04:34:07;;;;;;;7.70;1.38;;;;;;;;;;4972327;28;20046;-87
2022/05/26 04:36:33;;;;;;;6.65;1.40;;;;;;;;;;4971529;28;20569;-86
2022/05/26 04:38:59;;;;;;;9.18;1.77;;;;;;;;;;4982988;28;20038;-86
2022/05/26 04:41:25;;;;;;;4.88;1.40;;;;;;;;;;4972965;28;20066;-87
2022/05/26 04:43:51;;;;;;;4.75;1.20;;;;;;;;;;4972105;28;20464;-88
2022/05/26 04:46:18;;;;;;;5.90;1.35;;;;;;;;;;4973043;28;20403;-85
2022/05/26 04:48:45;;;;;;;5.93;1.27;;;;;;;;;;4972928;28;20042;-86
2022/05/26 04:51:11;;;;;;;8.10;1.30;;;;;;;;;;4999542;28;20413;-86
2022/05/26 04:53:37;;;;;;;4.85;1.20;;;;;;;;;;4990591;28;20097;-80
2022/05/26 04:56:03;;;;;;;4.97;1.30;;;;;;;;;;4985838;28;20077;-80
2022/05/26 04:58:29;;;;;;;5.68;1.10;;;;;;;;;;4970562;28;20042;-81
2022/05/26 05:00:55;;;;;;;7.47;1.33;;;;;;;;;;4982635;28;20137;-80
2022/05/26 05:03:21;;;;;;;6.90;1.02;;;;;;;;;;4971354;28;20402;-81
2022/05/26 05:05:47;;;;;;;4.43;1.15;;;;;;;;;;4970996;28;20530;-82
2022/05/26 05:08:13;;;;;;;7.50;1.10;;;;;;;;;;4970671;28;20130;-81
2022/05/26 05:10:40;;;;;;;5.50;1.20;;;;;;;;;;4971614;28;20071;-81
2022/05/26 05:13:06;;;;;;;5.40;1.02;;;;;;;;;;4973555;28;20130;-80
2022/05/26 05:15:35;;;;;;;6.22;1.10;;;;;;;;;;4971808;28;20050;-86
2022/05/26 05:18:01;;;;;;;4.90;1.13;;;;;;;;;;4972436;28;20170;-87
2022/05/26 05:20:27;;;;;;;5.57;1.10;;;;;;;;;;4988043;28;20050;-89
2022/05/26 05:22:57;;;;;;;5.75;1.25;;;;;;;;;;4973149;28;20042;-85
2022/05/26 05:25:33;;;;;;;5.20;1.13;;;;;;;;;;4972147;28;20053;-87
2022/05/26 05:28:01;;;;;;;6.18;1.20;;;;;;;;;;4972075;28;20375;-88
2022/05/26 05:30:30;;;;;;;4.43;0.70;;;;;;;;;;4973377;28;20039;-87
2022/05/26 05:33:17;;;;;;;6.30;1.00;;;;;;;;;;4989523;28;20478;-87
2022/05/26 05:35:49;;;;;;;8.10;1.33;;;;;;;;;;4972021;28;20447;-86
2022/05/26 05:38:16;;;;;;;7.70;1.00;;;;;;;;;;4971833;28;20034;-85
2022/05/26 05:40:42;;;;;;;4.88;0.90;;;;;;;;;;4971154;28;20134;-79
2022/05/26 05:43:08;;;;;;;4.07;0.95;;;;;;;;;;4953777;28;20047;-79
2022/05/26 05:45:35;;;;;;;4.05;0.93;;;;;;;;;;4969215;28;20061;-79
2022/05/26 05:48:01;;;;;;;4.05;0.70;;;;;;;;;;4972894;28;20522;-81
2022/05/26 05:50:27;;;;;;;5.85;0.80;;;;;;;;;;4968929;28;20113;-83
2022/05/26 05:52:53;;;;;;;5.03;1.15;;;;;;;;;;4968171;28;20042;-80
2022/05/26 05:55:19;;;;;;;5.20;0.82;;;;;;;;;;4968938;28;20042;-79
2022/05/26 05:57:45;;;;;;;4.15;1.10;;;;;;;;;;4952665;28;20089;-81
2022/05/26 06:00:12;;;;;;;6.13;0.98;;;;;;;;;;4979051;28;20046;-81
2022/05/26 06:02:38;;;;;;;6.15;0.93;;;;;;;;;;4969803;28;20049;-80
2022/05/26 06:05:05;;;;;;;3.63;0.80;;;;;;;;;;4953500;28;20047;-80
2022/05/26 06:07:31;;;;;;;3.38;1.02;;;;;;;;;;4972296;28;20503;-80
2022/05/26 06:09:57;;;;;;;5.57;1.15;;;;;;;;;;4956183;28;20054;-80
2022/05/26 06:12:23;;;;;;;5.25;1.30;;;;;;;;;;4975116;28;20055;-78
2022/05/26 06:14:50;;;;;;;5.32;0.80;;;;;;;;;;4989037;28;20057;-80
2022/05/26 06:17:16;;;;;;;8.93;1.25;;;;;;;;;;4986477;28;20085;-79
2022/05/26 06:19:42;;;;;;;5.85;1.13;;;;;;;;;;4972010;28;20163;-80
2022/05/26 06:22:10;;;;;;;5.40;1.13;;;;;;;;;;4971441;28;20046;-79
2022/05/26 06:24:37;;;;;;;3.90;1.02;;;;;;;;;;4972092;28;20046;-79
2022/05/26 06:29:49;;;;;;;5.18;1.30;;;;;;;;;;4972648;28;20094;-80
2022/05/26 06:29:49;;;;;;;;;;;;;;;;;;4993661;28;20051;-79
2022/05/26 06:37:46;;;;;;;6.00;1.00;;;;;;;;;;4996763;28;20050;-79
2022/05/26 06:40:14;;;;;;;3.17;0.85;;;;;;;;;;4956229;28;20054;-85
2022/05/26 06:42:40;;;;;;;4.05;1.00;;;;;;;;;;4991790;28;20478;-88
2022/05/26 06:45:06;;;;;;;4.75;1.25;;;;;;;;;;4981978;28;20043;-85
2022/05/26 06:47:32;;;;;;;6.38;0.90;;;;;;;;;;4972347;28;20039;-87
2022/05/26 06:49:59;;;;;;;3.95;1.05;;;;;;;;;;4972518;28;20058;-88
2022/05/26 06:52:25;;;;;;;4.57;0.93;;;;;;;;;;4973315;28;20054;-86
2022/05/26 06:54:52;;;;;;;5.10;1.30;;;;;;;;;;4991862;28;20088;-87
2022/05/26 06:57:18;;;;;;;4.25;0.93;;;;;;;;;;4978139;28;20049;-86
2022/05/26 06:59:44;;;;;;;4.60;1.20;;;;;;;;;;4989086;28;20097;-88
2022/05/26 07:02:11;;;;;;;4.05;0.90;;;;;;;;;;4973082;28;20042;-90
2022/05/26 07:04:39;;;;;;;5.97;1.00;;;;;;;;;;4975254;28;20130;-87
2022/05/26 07:07:05;;;;;;;4.13;0.95;;;;;;;;;;4974650;28;20066;-88
2022/05/26 07:09:32;;;;;;;5.35;1.00;;;;;;;;;;4978875;28;20062;-87
2022/05/26 07:11:58;;;;;;;2.40;0.82;;;;;;;;;;5005205;28;20059;-88
2022/05/26 07:14:24;;;;;;;5.25;1.00;;;;;;;;;;4976813;28;20054;-86
2022/05/26 07:16:51;;;;;;;5.05;0.90;;;;;;;;;;4974243;28;20062;-86
2022/05/26 07:19:18;;;;;;;4.97;0.90;;;;;;;;;;4980008;28;20465;-87
2022/05/26 07:21:46;;;;;;;4.82;0.70;;;;;;;;;;4981132;28;20077;-91
2022/05/26 07:24:13;;;;;;;4.75;0.88;;;;;;;;;;4992342;28;20125;-85
2022/05/26 07:26:39;;;;;;;3.42;0.75;;;;;;;;;;4975960;28;20082;-88
2022/05/26 07:29:05;;;;;;;1.45;0.68;;;;;;;;;;4985089;28;20134;-89
2022/05/26 07:31:31;;;;;;;3.03;0.85;;;;;;;;;;4973772;28;20794;-88
2022/05/26 07:33:57;;;;;;;5.10;0.90;;;;;;;;;;4971823;28;20073;-88
2022/05/26 07:41:56;;;;;;;5.43;0.98;;;;;;;;;;4980451;28;20034;-85
2022/05/26 07:44:23;;;;;;;7.60;0.93;;;;;;;;;;4974255;28;20038;-85
2022/05/26 07:46:49;;;;;;;6.05;0.85;;;;;;;;;;4994452;28;20039;-84
2022/05/26 07:49:15;;;;;;;2.55;0.60;;;;;;;;;;4988256;28;20137;-84
2022/05/26 07:51:41;;;;;;;3.28;0.77;;;;;;;;;;4971104;28;20491;-77
2022/05/26 07:54:07;;;;;;;4.57;0.88;;;;;;;;;;4971752;28;20450;-88
2022/05/26 07:56:36;;;;;;;4.18;0.70;;;;;;;;;;4974934;28;20038;-88
2022/05/26 07:59:04;;;;;;;4.35;0.95;;;;;;;;;;4991566;28;20513;-89
2022/05/26 08:01:30;;;;;;;4.40;1.15;;;;;;;;;;4990705;28;20481;-89
2022/05/26 08:03:57;;;;;;;3.80;1.00;;;;;;;;;;4993493;28;20481;-88
2022/05/26 08:06:23;;;;;;;3.70;0.80;;;;;;;;;;4991014;28;20137;-84
2022/05/26 08:08:49;;;;;;;3.10;0.73;;;;;;;;;;4984897;28;20494;-84
2022/05/26 08:11:15;;;;;;;4.68;1.00;;;;;;;;;;4988725;28;20047;-86
2022/05/26 08:13:41;;;;;;;6.40;0.82;;;;;;;;;;4986140;28;20058;-83
2022/05/26 08:16:07;;;;;;;4.32;0.82;;;;;;;;;;4973497;28;20517;-84
2022/05/26 08:18:34;;;;;;;4.50;0.75;;;;;;;;;;4987378;28;20046;-82
2022/05/26 08:21:07;;;;;;;4.43;1.33;;;;;;;;;;4987445;28;20062;-83
2022/05/26 08:23:34;;;;;;;2.67;0.82;;;;;;;;;;4982542;28;20073;-84
2022/05/26 08:26:00;;;;;;;3.88;0.70;;;;;;;;;;4975738;28;20038;-83
2022/05/26 08:28:26;;;;;;;3.35;0.70;;;;;;;;;;4987519;28;20058;-84
2022/05/26 08:30:52;;;;;;;3.17;0.68;;;;;;;;;;4970874;28;20086;-79
2022/05/26 08:33:18;;;;;;;2.70;0.77;;;;;;;;;;4978911;28;20121;-82
2022/05/26 08:35:44;;;;;;;2.58;0.70;;;;;;;;;;4987777;28;20042;-85
2022/05/26 08:38:10;;;;;;;4.07;0.80;;;;;;;;;;4990693;28;20498;-84
2022/05/26 08:40:42;;;;;;;3.28;0.60;;;;;;;;;;4991124;28;20065;-82
2022/05/26 08:43:11;;;;;;;3.97;0.90;;;;;;;;;;4974519;28;20140;-82
2022/05/26 08:45:39;;;;;;;3.80;0.68;;;;;;;;;;4987900;28;20042;-84
2022/05/26 08:48:05;;;;;;;3.38;0.93;;;;;;;;;;4985995;28;20136;-80
2022/05/26 08:50:34;;;;;;;6.63;0.98;;;;;;;;;;4997576;28;20049;-84
2022/05/26 08:53:20;;;;;;;3.30;0.70;;;;;;;;;;4981319;28;20046;-81
2022/05/26 08:55:48;;;;;;;2.60;0.70;;;;;;;;;;4986852;28;20043;-81
2022/05/26 08:58:18;;;;;;;4.65;0.77;;;;;;;;;;4972507;28;20057;-80
2022/05/26 09:00:47;;;;;;;2.13;0.43;;;;;;;;;;4969970;28;20051;-75
2022/05/26 09:03:19;;;;;;;3.05;0.88;;;;;;;;;;4972089;28;20043;-80
2022/05/26 09:05:46;;;;;;;2.78;0.70;;;;;;;;;;4970214;28;20051;-74
2022/05/26 09:13:49;;;;;;;2.13;0.60;;;;;;;;;;4985490;28;20450;-80
2022/05/26 09:16:15;;;;;;;2.75;0.68;;;;;;;;;;4987698;28;20133;-78
2022/05/26 09:18:41;;;;;;;3.60;0.80;;;;;;;;;;4987414;28;20092;-77
2022/05/26 09:21:17;;;;;;;4.93;0.80;;;;;;;;;;4983645;28;20101;-76
2022/05/26 09:23:46;;;;;;;4.10;1.10;;;;;;;;;;4986264;28;20038;-73
2022/05/26 09:26:16;;;;;;;3.83;0.80;;;;;;;;;;4971710;28;20127;-76
2022/05/26 09:28:43;;;;;;;4.50;0.80;;;;;;;;;;4971471;28;20100;-76
2022/05/26 09:31:29;;;;;;;4.63;1.15;;;;;;;;;;4970419;28;20054;-76
2022/05/26 09:34:01;;;;;;;8.82;1.10;;;;;;;;;;4985927;28;20086;-77
2022/05/26 09:36:28;;;;;;;16.45;5.38;;;;;;;;;;5002403;28;20078;-76
2022/05/26 09:38:55;;;;;;;6.90;1.30;;;;;;;;;;4985947;28;20125;-75
2022/05/26 09:41:21;;;;;;;4.63;1.08;;;;;;;;;;4987030;28;20031;-80
2022/05/26 09:43:50;;;;;;;4.95;0.88;;;;;;;;;;4974453;28;20038;-76
2022/05/26 09:46:17;;;;;;;5.20;1.60;;;;;;;;;;4984964;28;20112;-80
2022/05/26 09:48:45;;;;;;;8.02;1.98;;;;;;;;;;4990923;28;20133;-78
2022/05/26 09:51:24;;;;;;;2.85;0.82;;;;;;;;;;4987258;28;20162;-77
2022/05/26 09:53:51;;;;;;;5.28;1.00;;;;;;;;;;4978302;28;20046;-78
2022/05/26 09:56:27;;;;;;;4.95;1.20;;;;;;;;;;4985599;28;20070;-79
2022/05/26 09:58:53;;;;;;;6.70;1.55;;;;;;;;;;4997118;28;20038;-79
2022/05/26 10:01:28;;;;;;;4.35;1.05;;;;;;;;;;4978947;28;20573;-78
2022/05/26 10:04:07;;;;;;;5.03;0.93;;;;;;;;;;5004706;28;20046;-77
2022/05/26 10:06:39;;;;;;;6.97;1.15;;;;;;;;;;4972277;28;20409;-77
2022/05/26 10:09:18;;;;;;;3.92;0.90;;;;;;;;;;4973816;28;20398;-80
2022/05/26 10:12:13;;;;;;;3.05;1.25;;;;;;;;;;4973139;28;20117;-77
2022/05/26 10:14:46;;;;;;;5.00;1.40;;;;;;;;;;4976120;28;20050;-78
2022/05/26 10:17:19;;;;;;;15.70;1.90;;;;;;;;;;4989623;28;20046;-84
2022/05/26 10:20:04;;;;;;;12.88;3.50;;;;;;;;;;4973040;28;20455;-79
2022/05/26 10:22:41;;;;;;;5.47;2.00;;;;;;;;;;4973049;28;20045;-77
2022/05/26 10:25:10;;;;;;;6.10;1.70;;;;;;;;;;4972669;28;20087;-78
2022/05/26 10:27:41;;;;;;;5.82;2.05;;;;;;;;;;5006574;28;20316;-76
2022/05/26 10:30:22;;;;;;;4.38;1.80;;;;;;;;;;4975927;28;20051;-79
2022/05/26 10:33:08;;;;;;;4.90;1.42;;;;;;;;;;4975063;28;20046;-80
2022/05/26 10:35:52;;;;;;;6.03;1.70;;;;;;;;;;4971040;28;20039;-80
2022/05/26 10:38:27;;;;;;;4.82;1.80;;;;;;;;;;5003060;28;20058;-79
2022/05/26 10:41:13;;;;;;;5.40;1.75;;;;;;;;;;4987561;28;20434;-78
2022/05/26 10:43:39;;;;;;;4.22;1.60;;;;;;;;;;4989331;28;20061;-79
2022/05/26 10:46:07;;;;;;;6.93;2.00;;;;;;;;;;4973419;28;20089;-80
2022/05/26 10:48:43;;;;;;;4.53;1.50;;;;;;;;;;4997484;28;20117;-80
2022/05/26 10:51:22;;;;;;;5.90;1.75;;;;;;;;;;4980175;28;20514;-89
2022/05/26 10:53:49;;;;;;;6.93;1.73;;;;;;;;;;4973230;28;20089;-83
2022/05/26 10:56:27;;;;;;;4.70;1.77;;;;;;;;;;4974033;28;20163;-86
2022/05/26 10:59:08;;;;;;;5.82;1.83;;;;;;;;;;4978847;28;20092;-81
2022/05/26 11:01:37;;;;;;;4.47;1.85;;;;;;;;;;4972924;28;20047;-77
2022/05/26 11:04:22;;;;;;;7.63;2.25;;;;;;;;;;4972009;28;20491;-80
2022/05/26 11:06:50;;;;;;;4.30;1.67;;;;;;;;;;4971316;28;20047;-76
2022/05/26 11:09:37;;;;;;;7.15;1.80;;;;;;;;;;4988097;28;20078;-80
2022/05/26 11:12:10;;;;;;;5.00;1.65;;;;;;;;;;4971716;28;20050;-79
2022/05/26 11:17:36;;;;;;;5.60;1.55;;;;;;;;;;4972753;28;20447;-79
2022/05/26 11:20:08;;;;;;;4.38;1.55;;;;;;;;;;4989638;28;20078;-77
2022/05/26 11:22:34;;;;;;;5.32;1.25;;;;;;;;;;4980008;28;20038;-76
2022/05/26 11:25:01;;;;;;;5.38;1.70;;;;;;;;;;4990056;28;20057;-78
2022/05/26 11:27:33;;;;;;;4.25;1.40;;;;;;;;;;4990896;28;20407;-79
2022/05/26 11:30:04;;;;;;;4.75;1.50;;;;;;;;;;4990634;28;20069;-76
2022/05/26 11:38:13;;;;;;;7.97;1.63;;;;;;;;;;4987139;28;20133;-77
2022/05/26 11:40:59;;;;;;;7.75;1.70;;;;;;;;;;4971414;28;20498;-77
2022/05/26 11:43:26;;;;;;;6.38;1.75;;;;;;;;;;4951939;28;20161;-79
2022/05/26 11:45:54;;;;;;;6.28;2.00;;;;;;;;;;4986765;28;20050;-78
2022/05/26 11:48:32;;;;;;;5.90;2.00;;;;;;;;;;4954979;28;20102;-77
2022/05/26 11:51:02;;;;;;;7.97;2.15;;;;;;;;;;4986768;28;20038;-79
2022/05/26 11:53:28;;;;;;;4.45;1.60;;;;;;;;;;4990369;28;20061;-78
2022/05/26 11:55:58;;;;;;;8.02;1.80;;;;;;;;;;4971603;28;20043;-76
2022/05/26 11:58:34;;;;;;;5.50;1.50;;;;;;;;;;4972612;28;20096;-79
2022/05/26 12:01:10;;;;;;;4.53;1.33;;;;;;;;;;4973922;28;20048;-80
2022/05/26 12:03:49;;;;;;;6.75;1.98;;;;;;;;;;4993088;28;20505;-80
2022/05/26 12:06:16;;;;;;;6.75;1.40;;;;;;;;;;4987409;28;20042;-80
2022/05/26 12:08:45;;;;;;;5.05;1.17;;;;;;;;;;4989974;28;20053;-80
2022/05/26 12:11:15;;;;;;;5.50;1.45;;;;;;;;;;4989745;28;20046;-80
2022/05/26 12:13:42;;;;;;;6.90;1.30;;;;;;;;;;4974000;28;20058;-80
2022/05/26 12:16:11;;;;;;;4.80;1.27;;;;;;;;;;4974849;28;20043;-85
2022/05/26 12:18:46;;;;;;;4.40;1.30;;;;;;;;;;4971926;28;20117;-82
2022/05/26 12:21:33;;;;;;;6.70;1.13;;;;;;;;;;4972162;28;20050;-83
2022/05/26 12:24:19;;;;;;;5.95;1.40;;;;;;;;;;4972638;28;20462;-90
2022/05/26 12:26:50;;;;;;;10.30;1.58;;;;;;;;;;4984202;28;20402;-89
2022/05/26 12:29:34;;;;;;;5.30;1.30;;;;;;;;;;4985288;28;20042;-88
2022/05/26 12:32:19;;;;;;;8.35;1.90;;;;;;;;;;4988150;28;20537;-83
2022/05/26 12:34:51;;;;;;;6.53;1.30;;;;;;;;;;4976172;28;20034;-86
2022/05/26 12:37:27;;;;;;;7.40;1.38;;;;;;;;;;4985139;28;20046;-88
2022/05/26 12:40:04;;;;;;;5.80;1.58;;;;;;;;;;4989688;28;20129;-85
2022/05/26 12:42:37;;;;;;;4.57;1.10;;;;;;;;;;4971690;28;20046;-83
2022/05/26 12:45:09;;;;;;;3.22;1.00;;;;;;;;;;4990069;28;20116;-88
2022/05/26 12:47:44;;;;;;;4.82;1.20;;;;;;;;;;4979667;28;20055;-87
2022/05/26 12:50:18;;;;;;;6.47;1.42;;;;;;;;;;5006418;28;20080;-84
2022/05/26 12:52:57;;;;;;;5.70;1.30;;;;;;;;;;4990412;28;20034;-81
2022/05/26 12:55:29;;;;;;;7.10;1.20;;;;;;;;;;5006838;28;20501;-86
2022/05/26 12:57:58;;;;;;;5.78;1.20;;;;;;;;;;4976047;28;20046;-91
2022/05/26 13:00:27;;;;;;;6.30;1.40;;;;;;;;;;4975352;28;20077;-88
2022/05/26 13:02:55;;;;;;;5.65;1.60;;;;;;;;;;4990993;28;20097;-83
2022/05/26 13:05:22;;;;;;;6.38;1.30;;;;;;;;;;4987487;28;20042;-84
2022/05/26 13:07:53;;;;;;;5.25;1.08;;;;;;;;;;4983045;28;20122;-84
2022/05/26 13:10:20;;;;;;;7.50;1.23;;;;;;;;;;4990278;28;20101;-87
2022/05/26 13:12:47;;;;;;;5.57;1.40;;;;;;;;;;4989648;28;20113;-84
2022/05/26 13:15:20;;;;;;;8.55;1.30;;;;;;;;;;4989333;28;20053;-84
2022/05/26 13:17:50;;;;;;;5.30;1.40;;;;;;;;;;4989181;28;20371;-80
2022/05/26 13:20:22;;;;;;;4.43;1.10;;;;;;;;;;4969434;28;20058;-80
2022/05/26 13:22:48;;;;;;;7.07;1.15;;;;;;;;;;4969709;28;20038;-78
2022/05/26 13:25:27;;;;;;;6.13;1.20;;;;;;;;;;4981183;28;20050;-75
2022/05/26 13:28:06;;;;;;;4.93;1.20;;;;;;;;;;4969620;28;20398;-74
2022/05/26 13:33:23;;;;;;;4.28;1.10;;;;;;;;;;5020380;28;20042;-77
2022/05/26 13:35:53;;;;;;;5.47;1.60;;;;;;;;;;4988836;28;20441;-77
2022/05/26 13:38:27;;;;;;;8.40;1.70;;;;;;;;;;4986916;28;20045;-79
2022/05/26 13:40:53;;;;;;;7.50;1.50;;;;;;;;;;4987815;28;20075;-80
2022/05/26 13:43:20;;;;;;;7.57;1.60;;;;;;;;;;4969795;28;20451;-79
2022/05/26 13:45:46;;;;;;;5.85;1.23;;;;;;;;;;4969249;28;20440;-79
2022/05/26 13:48:31;;;;;;;4.70;1.50;;;;;;;;;;4970451;28;20047;-77
2022/05/26 13:51:00;;;;;;;6.32;1.33;;;;;;;;;;4981968;28;20052;-84
2022/05/26 13:53:27;;;;;;;4.90;1.20;;;;;;;;;;4986007;28;20050;-86
2022/05/26 13:55:55;;;;;;;9.57;1.40;;;;;;;;;;4986393;28;20146;-85
2022/05/26 13:58:21;;;;;;;7.15;1.63;;;;;;;;;;4973274;28;20058;-81
2022/05/26 14:00:57;;;;;;;6.97;1.50;;;;;;;;;;4978271;28;20045;-84
2022/05/26 14:03:33;;;;;;;8.80;1.80;;;;;;;;;;5006268;28;20046;-88
2022/05/26 14:06:07;;;;;;;6.25;1.52;;;;;;;;;;4977508;28;20115;-86
2022/05/26 14:08:34;;;;;;;4.47;1.30;;;;;;;;;;4972718;28;20042;-87
2022/05/26 14:11:00;;;;;;;7.68;1.50;;;;;;;;;;4971361;28;20566;-85
2022/05/26 14:13:34;;;;;;;8.20;1.83;;;;;;;;;;4970572;28;20065;-80
2022/05/26 14:16:07;;;;;;;8.85;1.58;;;;;;;;;;4983725;28;20386;-83
2022/05/26 14:18:44;;;;;;;5.45;1.52;;;;;;;;;;4972375;28;20046;-87
2022/05/26 14:21:13;;;;;;;5.80;1.67;;;;;;;;;;4974388;28;20044;-85
2022/05/26 14:23:52;;;;;;;7.22;1.40;;;;;;;;;;4981053;28;20051;-87
2022/05/26 14:26:28;;;;;;;6.63;1.50;;;;;;;;;;4971524;28;20073;-88
2022/05/26 14:28:55;;;;;;;6.63;1.50;;;;;;;;;;4973981;28;20050;-86
2022/05/26 14:31:22;;;;;;;6.60;1.90;;;;;;;;;;4974742;28;20057;-85
2022/05/26 14:33:59;;;;;;;7.95;1.80;;;;;;;;;;4974131;28;20039;-83
2022/05/26 14:36:27;;;;;;;10.38;1.95;;;;;;;;;;4973826;28;20615;-85
2022/05/26 14:38:53;;;;;;;6.32;1.65;;;;;;;;;;4973162;28;20038;-83
2022/05/26 14:41:19;;;;;;;10.32;2.00;;;;;;;;;;4981476;28;20050;-85
2022/05/26 14:43:46;;;;;;;5.43;1.70;;;;;;;;;;4980623;28;20041;-83
2022/05/26 14:46:13;;;;;;;10.70;2.00;;;;;;;;;;4993081;28;20398;-86
2022/05/26 14:48:39;;;;;;;10.23;2.20;;;;;;;;;;4993213;28;20090;-84
2022/05/26 14:51:06;;;;;;;7.55;1.80;;;;;;;;;;4991521;28;20046;-85
2022/05/26 14:56:17;;;;;;;8.35;1.95;;;;;;;;;;5002696;28;20055;-82
2022/05/26 14:58:43;;;;;;;8.52;2.10;;;;;;;;;;5003432;28;20500;-84
2022/05/26 15:01:09;;;;;;;8.57;2.10;;;;;;;;;;4987026;28;20490;-84
2022/05/26 15:03:35;;;;;;;6.25;1.85;;;;;;;;;;4986981;28;20049;-89
2022/05/26 15:06:01;;;;;;;8.52;2.08;;;;;;;;;;4993098;28;20390;-87
2022/05/26 15:08:27;;;;;;;11.70;2.40;;;;;;;;;;4976960;28;20465;-89
2022/05/26 15:10:54;;;;;;;10.70;3.00;;;;;;;;;;4973440;28;20054;-87
2022/05/26 15:13:20;;;;;;;10.63;2.28;;;;;;;;;;4974538;28;20054;-86
2022/05/26 15:15:46;;;;;;;8.30;1.88;;;;;;;;;;4975671;28;20502;-86
2022/05/26 15:18:13;;;;;;;7.93;1.80;;;;;;;;;;4973621;28;20487;-91
2022/05/26 15:20:39;;;;;;;6.00;1.70;;;;;;;;;;4972351;28;20047;-87
2022/05/26 15:23:06;;;;;;;10.23;2.92;;;;;;;;;;4973614;28;20042;-87
2022/05/26 15:25:32;;;;;;;5.43;1.70;;;;;;;;;;4984279;28;20042;-87
2022/05/26 15:28:01;;;;;;;11.90;1.90;;;;;;;;;;4991826;28;20074;-90
2022/05/26 15:30:27;;;;;;;5.68;1.65;;;;;;;;;;5006385;28;20424;-88
2022/05/26 15:32:53;;;;;;;6.40;1.33;;;;;;;;;;4977880;28;20302;-87
2022/05/26 15:35:21;;;;;;;8.25;1.77;;;;;;;;;;4979092;28;20038;-85
2022/05/26 15:37:49;;;;;;;5.97;1.80;;;;;;;;;;4990819;28;20100;-86